createdAt,value
2023-03-13T04:20:14.471Z,1.55
2023-03-13T04:22:42.696Z,1.40
2023-03-13T04:25:11.462Z,1.30
2023-03-13T04:27:39.578Z,1.40
2023-03-13T04:30:09.432Z,1.20
2023-03-13T04:32:38.959Z,1.65
2023-03-13T04:35:07.528Z,1.23
2023-03-13T04:37:35.715Z,1.65
2023-03-13T04:40:04.184Z,1.80
2023-03-13T04:42:32.226Z,1.48
2023-03-13T04:45:00.282Z,1.30
2023-03-13T04:47:28.446Z,1.48
2023-03-13T04:49:57.890Z,1.45
2023-03-13T04:52:26.023Z,1.40
2023-03-13T04:54:54.065Z,1.45
2023-03-13T04:57:22.127Z,1.25
2023-03-13T04:59:50.259Z,1.40
2023-03-13T05:02:18.442Z,1.27
2023-03-13T05:04:46.581Z,1.73
2023-03-13T05:07:16.047Z,1.50
2023-03-13T05:09:44.079Z,1.80
2023-03-13T05:12:12.153Z,1.77
2023-03-13T05:14:40.218Z,1.80
2023-03-13T05:17:08.294Z,1.25
2023-03-13T05:19:36.320Z,1.45
2023-03-13T05:22:04.436Z,1.05
2023-03-13T05:24:33.863Z,0.90
2023-03-13T05:27:02.608Z,0.82
2023-03-13T05:29:30.655Z,1.00
2023-03-13T05:31:58.673Z,1.05
2023-03-13T05:34:26.712Z,0.93
2023-03-13T05:36:54.765Z,0.63
2023-03-13T05:39:22.850Z,1.02
2023-03-13T05:41:52.241Z,1.55
2023-03-13T05:44:20.276Z,0.90
2023-03-13T05:46:48.389Z,0.77
2023-03-13T05:49:16.602Z,0.80
2023-03-13T05:51:44.722Z,0.80
2023-03-13T05:54:15.402Z,0.70
2023-03-13T05:56:44.944Z,1.00
2023-03-13T05:59:14.399Z,2.22
2023-03-13T06:01:42.432Z,1.38
2023-03-13T06:04:10.638Z,0.88
2023-03-13T06:06:38.822Z,1.10
2023-03-13T06:09:07.072Z,0.80
2023-03-13T06:11:35.145Z,1.30
2023-03-13T06:14:03.252Z,1.40
2023-03-13T06:16:32.701Z,1.55
2023-03-13T06:19:00.783Z,0.95
2023-03-13T06:21:28.854Z,0.98
2023-03-13T06:23:57.329Z,1.42
2023-03-13T06:26:25.792Z,1.45
2023-03-13T06:28:54.080Z,1.00
2023-03-13T06:31:22.178Z,1.10
2023-03-13T06:33:54.480Z,0.80
2023-03-13T06:36:22.674Z,0.90
2023-03-13T06:38:50.971Z,0.88
2023-03-13T06:41:19.062Z,1.17
2023-03-13T06:43:47.212Z,1.38
2023-03-13T06:46:18.813Z,1.35
2023-03-13T06:48:47.645Z,1.10
2023-03-13T06:51:18.412Z,1.00
2023-03-13T06:53:47.311Z,1.13
2023-03-13T06:56:15.786Z,1.13
2023-03-13T06:58:43.975Z,0.70
2023-03-13T07:01:13.754Z,0.88
2023-03-13T07:03:42.468Z,0.80
2023-03-13T07:06:12.300Z,0.98
2023-03-13T07:08:41.762Z,0.98
2023-03-13T07:11:11.552Z,1.15
2023-03-13T07:13:39.937Z,0.70
2023-03-13T07:16:10.195Z,1.00
2023-03-13T07:18:38.349Z,0.70
2023-03-13T07:21:07.069Z,0.73
2023-03-13T07:23:36.236Z,0.90
2023-03-13T07:26:08.040Z,0.55
2023-03-13T07:28:37.779Z,0.60
2023-03-13T07:31:07.722Z,0.60
2023-03-13T07:33:36.073Z,0.90
2023-03-13T07:36:04.607Z,0.90
2023-03-13T07:38:32.729Z,0.80
2023-03-13T07:41:00.843Z,0.80
2023-03-13T07:43:31.485Z,0.75
2023-03-13T07:46:00.658Z,0.98
2023-03-13T07:48:31.502Z,0.80
2023-03-13T07:51:00.245Z,0.85
2023-03-13T07:53:28.619Z,0.90
2023-03-13T07:55:58.265Z,1.08
2023-03-13T07:58:27.586Z,1.00
2023-03-13T08:00:57.441Z,1.10
2023-03-13T08:03:25.940Z,1.13
2023-03-13T08:06:00.463Z,1.05
2023-03-13T08:08:28.561Z,1.52
2023-03-13T08:11:01.460Z,1.30
2023-03-13T08:13:29.605Z,1.40
2023-03-13T08:16:06.905Z,1.42
2023-03-13T08:18:35.965Z,1.45
2023-03-13T08:21:05.594Z,1.30
2023-03-13T08:23:34.096Z,1.77
2023-03-13T08:26:07.293Z,1.42
2023-03-13T08:28:35.942Z,1.60
2023-03-13T08:31:13.930Z,1.40
2023-03-13T08:33:43.286Z,1.20
2023-03-13T08:36:15.663Z,1.10
2023-03-13T08:38:46.007Z,1.67
2023-03-13T08:41:15.526Z,1.58
2023-03-13T08:43:43.857Z,1.40
2023-03-13T08:46:13.535Z,1.45
2023-03-13T08:48:41.733Z,1.50
2023-03-13T08:51:11.174Z,1.25
2023-03-13T08:53:40.321Z,1.35
2023-03-13T08:56:09.750Z,2.08
2023-03-13T08:58:37.939Z,2.00
2023-03-13T09:01:07.659Z,2.85
2023-03-13T09:03:39.326Z,1.65
2023-03-13T09:06:08.272Z,1.70
2023-03-13T09:08:36.970Z,1.88
2023-03-13T09:11:06.671Z,1.70
2023-03-13T09:13:36.590Z,1.48
2023-03-13T09:16:06.473Z,1.90
2023-03-13T09:18:36.635Z,2.10
2023-03-13T09:21:08.210Z,1.60
2023-03-13T09:23:36.639Z,2.55
2023-03-13T09:26:04.885Z,2.05
2023-03-13T09:28:33.320Z,1.95
2023-03-13T09:31:08.704Z,1.77
2023-03-13T09:33:38.408Z,2.47
2023-03-13T09:36:07.306Z,2.13
2023-03-13T09:38:35.530Z,2.20
2023-03-13T09:41:06.973Z,2.15
2023-03-13T09:43:42.336Z,2.30
2023-03-13T09:46:14.850Z,2.30
2023-03-13T09:48:46.853Z,2.20
2023-03-13T09:51:17.953Z,2.20
2023-03-13T09:53:49.746Z,1.85
2023-03-13T09:56:21.712Z,2.10
2023-03-13T09:58:55.089Z,1.95
2023-03-13T10:01:27.719Z,2.20
2023-03-13T10:04:03.108Z,2.53
2023-03-13T10:06:36.132Z,2.13
2023-03-13T10:11:37.205Z,1.70
2023-03-13T10:16:41.073Z,1.50
2023-03-13T10:19:15.717Z,2.60
2023-03-13T10:21:45.398Z,1.80
2023-03-13T10:24:19.120Z,1.98
2023-03-13T10:26:47.221Z,1.83
2023-03-13T10:29:22.989Z,1.70
2023-03-13T10:31:57.201Z,1.75
2023-03-13T10:34:27.715Z,1.63
2023-03-13T10:37:01.456Z,1.23
2023-03-13T10:39:30.778Z,1.40
2023-03-13T10:42:01.032Z,1.67
2023-03-13T10:44:33.770Z,1.67
2023-03-13T10:47:03.810Z,2.20
2023-03-13T10:49:34.142Z,2.08
2023-03-13T10:52:04.424Z,1.27
2023-03-13T10:54:35.277Z,1.30
2023-03-13T10:57:20.821Z,1.10
2023-03-13T10:59:50.085Z,1.15
2023-03-13T11:02:24.286Z,1.30
2023-03-13T11:04:54.536Z,1.20
2023-03-13T11:07:26.709Z,1.17
2023-03-13T11:10:03.058Z,1.40
2023-03-13T11:12:35.325Z,1.45
2023-03-13T11:15:21.743Z,0.95
2023-03-13T11:17:53.553Z,1.30
2023-03-13T11:20:27.143Z,2.28
2023-03-13T11:23:05.130Z,1.23
2023-03-13T11:25:36.946Z,1.25
2023-03-13T11:28:31.703Z,0.82
2023-03-13T11:31:09.222Z,1.45
2023-03-13T11:33:43.308Z,1.35
2023-03-13T11:36:19.029Z,1.55
2023-03-13T11:38:50.305Z,1.25
2023-03-13T11:41:32.925Z,1.10
2023-03-13T11:44:23.397Z,1.15
2023-03-13T11:47:06.916Z,1.20
2023-03-13T11:50:03.219Z,1.13
2023-03-13T11:53:01.305Z,1.35
2023-03-13T11:55:45.995Z,1.20
2023-03-13T11:58:31.947Z,1.00
2023-03-13T12:01:01.813Z,0.80
2023-03-13T12:03:36.818Z,1.02
2023-03-13T12:06:13.192Z,1.20
2023-03-13T12:08:50.852Z,0.82
2023-03-13T12:11:23.773Z,1.63
2023-03-13T12:13:56.670Z,0.95
2023-03-13T12:16:27.633Z,1.20
2023-03-13T12:18:56.111Z,1.30
2023-03-13T12:21:29.643Z,0.98
2023-03-13T12:24:02.101Z,0.73
2023-03-13T12:26:36.387Z,1.02
2023-03-13T12:29:09.838Z,0.75
2023-03-13T12:31:40.594Z,0.80
2023-03-13T12:34:16.635Z,0.70
2023-03-13T12:36:49.990Z,1.30
2023-03-13T12:39:27.204Z,0.60
2023-03-13T12:42:07.686Z,0.98
2023-03-13T12:44:36.062Z,0.90
2023-03-13T12:47:10.199Z,0.73
2023-03-13T12:49:57.385Z,0.77
2023-03-13T12:52:57.821Z,0.90
2023-03-13T12:56:01.511Z,0.63
2023-03-13T13:01:12.548Z,1.00
2023-03-13T13:03:44.734Z,0.70
2023-03-13T13:06:14.889Z,0.77
2023-03-13T13:08:44.262Z,0.75
2023-03-13T13:11:47.346Z,0.95
2023-03-13T13:14:58.170Z,1.20
2023-03-13T13:17:36.602Z,0.90
2023-03-13T13:20:33.984Z,0.80
2023-03-13T13:23:37.510Z,0.85
2023-03-13T13:26:38.552Z,0.80
2023-03-13T13:29:40.027Z,1.08
2023-03-13T13:32:15.381Z,0.80
2023-03-13T13:35:02.295Z,0.80
2023-03-13T13:37:30.461Z,0.70
2023-03-13T13:40:20.563Z,0.80
2023-03-13T13:42:50.035Z,0.60
2023-03-13T13:45:27.670Z,0.88
2023-03-13T13:48:31.074Z,0.63
2023-03-13T13:51:24.042Z,0.95
2023-03-13T13:53:56.759Z,0.90
2023-03-13T13:56:52.612Z,0.60
2023-03-13T13:59:32.483Z,0.77
2023-03-13T14:02:22.316Z,0.80
2023-03-13T14:04:57.542Z,0.90
2023-03-13T14:07:31.764Z,1.00
2023-03-13T14:10:04.681Z,0.80
2023-03-13T14:12:34.239Z,0.80
2023-03-13T14:15:11.392Z,1.10
2023-03-13T14:17:41.219Z,0.82
2023-03-13T14:20:21.498Z,0.95
2023-03-13T14:22:53.698Z,1.30
2023-03-13T14:25:21.945Z,1.90
2023-03-13T14:27:50.650Z,0.95
2023-03-13T14:30:20.300Z,1.98
2023-03-13T14:32:48.857Z,0.90
2023-03-13T14:35:20.776Z,0.85
2023-03-13T14:37:51.532Z,0.88
2023-03-13T14:40:26.066Z,1.00
2023-03-13T14:42:55.766Z,0.93
2023-03-13T14:45:27.080Z,0.65
2023-03-13T14:47:55.532Z,1.00
2023-03-13T14:50:25.368Z,0.95
2023-03-13T14:52:58.089Z,0.80
2023-03-13T14:55:44.454Z,0.77
2023-03-13T14:58:30.813Z,1.00
2023-03-13T15:01:00.047Z,0.95
2023-03-13T15:03:33.336Z,1.00
2023-03-13T15:06:08.389Z,0.80
2023-03-13T15:08:39.665Z,0.77
2023-03-13T15:11:19.890Z,1.10
2023-03-13T15:13:48.015Z,1.15
2023-03-13T15:16:18.719Z,0.90
2023-03-13T15:18:47.380Z,0.82
2023-03-13T15:21:23.311Z,1.00
2023-03-13T15:23:55.053Z,1.00
2023-03-13T15:26:24.225Z,1.00
2023-03-13T15:28:52.502Z,1.23
2023-03-13T15:31:21.564Z,1.10
2023-03-13T15:33:50.336Z,0.73
2023-03-13T15:36:18.385Z,0.95
2023-03-13T15:38:48.055Z,1.15
2023-03-13T15:41:17.465Z,0.90
2023-03-13T15:43:46.129Z,1.10
2023-03-13T15:46:14.941Z,1.02
2023-03-13T15:48:43.283Z,1.48
2023-03-13T15:51:14.218Z,0.98
2023-03-13T15:53:43.056Z,1.00
2023-03-13T15:56:15.620Z,0.75
2023-03-13T15:58:45.732Z,1.00
2023-03-13T16:01:14.257Z,0.88
2023-03-13T16:03:42.648Z,0.90
2023-03-13T16:06:17.404Z,0.80
2023-03-13T16:08:45.859Z,0.60
2023-03-13T16:11:15.851Z,0.70
2023-03-13T16:13:45.943Z,1.33
2023-03-13T16:16:21.412Z,1.00
2023-03-13T16:18:50.362Z,0.80
2023-03-13T16:21:20.931Z,0.70
2023-03-13T16:23:49.413Z,0.90
2023-03-13T16:26:19.176Z,0.70
2023-03-13T16:28:49.206Z,0.70
2023-03-13T16:31:21.771Z,0.68
2023-03-13T16:33:53.298Z,0.60
2023-03-13T16:36:23.158Z,0.70
2023-03-13T16:38:51.937Z,0.60
2023-03-13T16:41:21.480Z,0.88
2023-03-13T16:43:51.238Z,1.90
2023-03-13T16:46:21.176Z,0.90
2023-03-13T16:48:50.626Z,0.77
2023-03-13T16:51:20.938Z,0.90
2023-03-13T16:53:50.824Z,0.50
2023-03-13T16:56:26.885Z,0.80
2023-03-13T16:58:56.808Z,0.60
2023-03-13T17:01:26.114Z,0.88
2023-03-13T17:03:54.519Z,0.98
2023-03-13T17:06:24.701Z,0.77
2023-03-13T17:08:53.108Z,1.17
2023-03-13T17:11:22.849Z,0.80
2023-03-13T17:13:51.993Z,0.73
2023-03-13T17:16:22.759Z,1.00
2023-03-13T17:18:52.939Z,0.80
2023-03-13T17:21:22.190Z,0.80
2023-03-13T17:23:50.386Z,0.80
2023-03-13T17:26:21.513Z,0.77
2023-03-13T17:28:50.824Z,1.15
2023-03-13T17:31:21.712Z,1.73
2023-03-13T17:33:50.529Z,1.55
2023-03-13T17:36:20.608Z,1.08
2023-03-13T17:38:49.986Z,1.08
2023-03-13T17:41:19.960Z,1.58
2023-03-13T17:43:48.604Z,2.08
2023-03-13T17:46:18.873Z,1.40
2023-03-13T17:48:49.689Z,1.17
2023-03-13T17:51:20.178Z,1.58
2023-03-13T17:53:49.059Z,1.30
2023-03-13T17:56:19.737Z,1.00
2023-03-13T17:58:50.267Z,0.90
2023-03-13T18:01:19.711Z,0.95
2023-03-13T18:03:49.627Z,1.73
2023-03-13T18:06:23.426Z,1.90
2023-03-13T18:08:52.849Z,1.08
2023-03-13T18:11:22.695Z,1.42
2023-03-13T18:13:50.897Z,1.33
2023-03-13T18:16:26.634Z,2.20
2023-03-13T18:18:56.223Z,2.08
2023-03-13T18:21:24.832Z,1.50
2023-03-13T18:23:53.507Z,1.20
2023-03-13T18:26:24.660Z,1.40
2023-03-13T18:28:55.552Z,1.17
2023-03-13T18:31:23.664Z,1.60
2023-03-13T18:33:51.797Z,1.30
2023-03-13T18:36:21.604Z,1.50
2023-03-13T18:38:49.927Z,1.67
2023-03-13T18:41:18.565Z,1.40
2023-03-13T18:43:47.476Z,1.30
2023-03-13T18:46:19.704Z,1.80
2023-03-13T18:48:47.924Z,2.25
2023-03-13T18:51:17.162Z,1.15
2023-03-13T18:53:46.931Z,1.27
2023-03-13T18:56:19.845Z,1.70
2023-03-13T18:58:50.376Z,3.08
2023-03-13T19:01:20.826Z,2.65
2023-03-13T19:03:49.445Z,1.33
2023-03-13T19:06:23.048Z,1.50
2023-03-13T19:08:53.975Z,1.40
2023-03-13T19:11:24.616Z,1.90
2023-03-13T19:13:53.335Z,1.75
2023-03-13T19:16:23.014Z,1.45
2023-03-13T19:18:51.758Z,1.30
2023-03-13T19:21:24.225Z,1.52
2023-03-13T19:23:54.360Z,1.33
2023-03-13T19:26:26.949Z,1.60
2023-03-13T19:28:55.452Z,1.83
2023-03-13T19:31:23.708Z,1.60
2023-03-13T19:33:53.390Z,1.42
2023-03-13T19:36:23.005Z,1.55
2023-03-13T19:38:52.836Z,1.55
2023-03-13T19:41:20.912Z,2.13
2023-03-13T19:43:49.022Z,1.60
2023-03-13T19:46:27.613Z,1.85
2023-03-13T19:48:56.909Z,2.08
2023-03-13T19:51:25.523Z,2.33
2023-03-13T19:53:55.425Z,1.67
2023-03-13T19:56:25.128Z,1.98
2023-03-13T19:58:54.619Z,1.50
2023-03-13T20:01:22.697Z,1.30
2023-03-13T20:03:50.843Z,1.90
2023-03-13T20:06:20.740Z,1.75
2023-03-13T20:08:48.869Z,1.83
2023-03-13T20:11:18.307Z,2.28
2023-03-13T20:13:46.337Z,1.80
2023-03-13T20:16:14.614Z,1.88
2023-03-13T20:18:44.046Z,2.15
2023-03-13T20:21:12.372Z,2.03
2023-03-13T20:23:40.469Z,1.50
2023-03-13T20:26:09.996Z,1.80
2023-03-13T20:28:40.493Z,3.15
2023-03-13T20:31:09.077Z,1.85
2023-03-13T20:33:37.644Z,1.50
2023-03-13T20:36:08.166Z,2.00
2023-03-13T20:38:36.297Z,2.10
2023-03-13T20:41:04.677Z,1.67
2023-03-13T20:43:33.284Z,2.25
2023-03-13T20:46:03.045Z,1.60
2023-03-13T20:48:31.753Z,1.77
2023-03-13T20:51:01.646Z,1.70
2023-03-13T20:53:30.215Z,1.85
2023-03-13T20:55:58.234Z,1.45
2023-03-13T20:58:26.276Z,2.13
2023-03-13T21:00:54.332Z,1.95
2023-03-13T21:03:23.755Z,1.83
2023-03-13T21:05:51.800Z,2.08
2023-03-13T21:08:19.872Z,2.30
2023-03-13T21:10:47.890Z,1.73
2023-03-13T21:13:15.969Z,1.80
2023-03-13T21:15:44.006Z,1.80
2023-03-13T21:18:12.055Z,1.48
2023-03-13T21:20:42.991Z,1.70
2023-03-13T21:23:11.065Z,1.40
2023-03-13T21:25:39.152Z,1.50
2023-03-13T21:28:07.226Z,1.70
2023-03-13T21:30:35.292Z,1.80
2023-03-13T21:33:03.345Z,2.13
2023-03-13T21:35:31.488Z,1.75
2023-03-13T21:38:00.921Z,1.85
2023-03-13T21:40:29.009Z,2.08
2023-03-13T21:42:57.059Z,1.48
2023-03-13T21:45:25.063Z,2.17
2023-03-13T21:47:53.130Z,2.13
2023-03-13T21:50:21.748Z,1.60
2023-03-13T21:52:49.879Z,2.13
2023-03-13T21:55:19.667Z,1.70
2023-03-13T21:57:47.743Z,1.65
2023-03-13T22:00:16.623Z,2.67
2023-03-13T22:02:44.667Z,1.70
2023-03-13T22:05:12.735Z,1.90
2023-03-13T22:07:40.779Z,1.10
2023-03-13T22:10:09.724Z,1.80
2023-03-13T22:12:39.174Z,1.67
2023-03-13T22:15:08.434Z,1.48
2023-03-13T22:17:36.520Z,1.52
2023-03-13T22:20:06.462Z,1.75
2023-03-13T22:22:34.566Z,1.48
2023-03-13T22:25:02.604Z,1.80
2023-03-13T22:27:30.659Z,1.70
2023-03-13T22:30:00.091Z,1.35
2023-03-13T22:32:28.209Z,2.13
2023-03-13T22:34:56.290Z,1.50
2023-03-13T22:37:26.773Z,1.60
2023-03-13T22:39:54.953Z,1.52
2023-03-13T22:42:24.334Z,1.38
2023-03-13T22:44:55.080Z,1.58
2023-03-13T22:47:26.035Z,1.70
2023-03-13T22:49:54.888Z,2.15
2023-03-13T22:52:28.946Z,1.25
2023-03-13T22:54:57.094Z,1.88
2023-03-13T22:57:25.467Z,1.60
